createdAt,value
2023-03-29T05:17:48.955Z,0.74
2023-03-29T05:22:51.153Z,0.81
2023-03-29T05:27:53.207Z,0.89
2023-03-29T05:32:55.369Z,1.06
2023-03-29T05:37:58.244Z,1.12
2023-03-29T05:43:02.498Z,1.32
2023-03-29T05:48:05.466Z,1.46
2023-03-29T05:53:08.041Z,1.62
2023-03-29T05:58:12.302Z,1.80
2023-03-29T06:03:21.534Z,1.99
2023-03-29T06:08:24.555Z,2.06
2023-03-29T06:13:27.914Z,2.16
2023-03-29T06:18:30.296Z,2.33
2023-03-29T06:23:32.468Z,2.61
2023-03-29T06:28:34.592Z,2.65
2023-03-29T06:33:38.113Z,2.86
2023-03-29T06:38:40.328Z,3.09
2023-03-29T06:43:42.545Z,3.21
2023-03-29T06:48:45.084Z,3.53
2023-03-29T06:53:47.147Z,3.65
2023-03-29T06:58:51.573Z,3.81
2023-03-29T07:03:54.421Z,3.75
2023-03-29T07:08:59.785Z,3.93
2023-03-29T07:14:05.380Z,4.06
2023-03-29T07:19:09.201Z,4.19
2023-03-29T07:24:11.449Z,4.18
2023-03-29T07:29:13.635Z,4.25
2023-03-29T07:34:17.497Z,4.32
2023-03-29T07:39:20.444Z,4.49
2023-03-29T07:44:23.426Z,4.71
2023-03-29T07:49:25.798Z,4.89
2023-03-29T07:54:27.939Z,4.92
2023-03-29T07:59:30.354Z,5.05
2023-03-29T08:04:32.575Z,5.38
2023-03-29T08:09:34.799Z,5.72
2023-03-29T08:14:37.082Z,5.84
2023-03-29T08:19:39.183Z,6.13
2023-03-29T08:24:41.655Z,6.16
2023-03-29T08:29:43.781Z,6.39
2023-03-29T08:34:46.822Z,6.54
2023-03-29T08:39:48.886Z,7.04
2023-03-29T08:45:11.542Z,7.35
2023-03-29T08:50:14.703Z,7.51
2023-03-29T08:55:27.010Z,7.81
2023-03-29T09:00:42.915Z,8.07
2023-03-29T09:05:49.009Z,8.30
2023-03-29T09:11:07.105Z,8.47
2023-03-29T09:16:18.279Z,8.31
2023-03-29T09:21:29.857Z,8.46
2023-03-29T09:26:41.828Z,9.08
2023-03-29T09:31:44.817Z,8.85
2023-03-29T09:36:56.769Z,9.03
2023-03-29T09:42:05.428Z,9.71
2023-03-29T09:47:55.225Z,10.15
2023-03-29T09:52:57.470Z,10.91
2023-03-29T09:58:12.908Z,10.97
2023-03-29T10:03:26.237Z,11.91
2023-03-29T10:08:31.337Z,11.97
2023-03-29T10:13:35.625Z,12.21
2023-03-29T10:18:42.761Z,12.48
2023-03-29T10:23:44.931Z,12.76
2023-03-29T10:28:47.132Z,13.17
2023-03-29T10:33:57.397Z,13.42
2023-03-29T10:39:05.117Z,13.89
2023-03-29T10:44:26.540Z,13.79
2023-03-29T10:49:28.700Z,14.46
2023-03-29T10:54:31.229Z,14.73
2023-03-29T10:59:47.702Z,14.39
2023-03-29T11:04:56.707Z,14.47
2023-03-29T11:10:04.827Z,14.51
2023-03-29T11:15:17.762Z,15.12
2023-03-29T11:20:31.131Z,15.55
2023-03-29T11:26:05.024Z,15.74
2023-03-29T11:31:21.361Z,15.52
2023-03-29T11:36:41.820Z,15.60
2023-03-29T11:41:48.140Z,15.57
2023-03-29T11:46:59.515Z,16.18
2023-03-29T11:52:17.627Z,16.26
2023-03-29T11:57:31.368Z,17.04
2023-03-29T12:02:46.288Z,17.43
2023-03-29T12:08:01.518Z,16.69
2023-03-29T12:13:15.066Z,16.95
2023-03-29T12:18:30.346Z,17.22
2023-03-29T12:23:33.520Z,17.12
2023-03-29T12:28:50.352Z,17.13
2023-03-29T12:34:14.756Z,16.61
2023-03-29T12:39:19.867Z,16.61
2023-03-29T12:44:23.936Z,16.31
2023-03-29T12:49:35.952Z,16.74
2023-03-29T12:54:38.071Z,15.13
2023-03-29T12:59:46.174Z,15.81
2023-03-29T13:04:55.321Z,16.66
2023-03-29T13:10:03.414Z,17.09
2023-03-29T13:15:21.542Z,17.71
2023-03-29T13:20:23.590Z,17.47
2023-03-29T13:25:45.106Z,17.82
2023-03-29T13:31:02.572Z,17.29
2023-03-29T13:36:16.528Z,17.65
2023-03-29T13:41:31.827Z,16.75
2023-03-29T13:46:37.561Z,15.97
2023-03-29T13:51:42.867Z,16.70
2023-03-29T13:57:11.082Z,17.85
2023-03-29T14:02:53.767Z,17.65
2023-03-29T14:07:56.755Z,17.25
2023-03-29T14:13:04.479Z,17.08
2023-03-29T14:18:12.079Z,17.47
2023-03-29T14:23:20.126Z,17.48
2023-03-29T14:28:27.954Z,18.92
2023-03-29T14:33:34.558Z,19.17
2023-03-29T14:38:37.849Z,16.55
2023-03-29T14:43:40.775Z,15.00
2023-03-29T14:48:44.048Z,13.81
2023-03-29T14:53:48.200Z,13.19
2023-03-29T14:58:54.910Z,12.76
2023-03-29T15:04:03.314Z,12.36
2023-03-29T15:09:06.957Z,12.21
2023-03-29T15:14:15.619Z,12.03
2023-03-29T15:19:21.370Z,12.08
2023-03-29T15:24:29.394Z,11.63
2023-03-29T15:29:40.718Z,11.37
2023-03-29T15:34:42.769Z,11.13
2023-03-29T15:39:44.821Z,11.15
2023-03-29T15:44:46.924Z,10.87
2023-03-29T15:49:49.250Z,11.10
2023-03-29T15:54:51.509Z,10.72
2023-03-29T15:59:53.662Z,10.74
2023-03-29T16:04:55.918Z,10.61
2023-03-29T16:09:58.088Z,10.53
2023-03-29T16:15:00.366Z,10.55
2023-03-29T16:20:04.865Z,10.26
2023-03-29T16:25:13.496Z,10.44
2023-03-29T16:30:16.087Z,10.29
2023-03-29T16:35:27.791Z,10.33
2023-03-29T16:40:30.035Z,10.29
2023-03-29T16:45:32.200Z,10.10
2023-03-29T16:50:34.450Z,9.89
2023-03-29T16:55:38.139Z,9.97
2023-03-29T17:00:40.956Z,9.81
2023-03-29T17:05:53.071Z,9.77
2023-03-29T17:10:55.687Z,9.74
2023-03-29T17:15:57.944Z,9.61
2023-03-29T17:21:00.197Z,9.42
2023-03-29T17:26:02.586Z,9.52
2023-03-29T17:31:09.566Z,9.49
2023-03-29T17:36:11.941Z,9.40
2023-03-29T17:41:14.190Z,9.41
2023-03-29T17:46:18.130Z,9.35
2023-03-29T17:51:20.797Z,9.31
2023-03-29T17:56:23.332Z,9.38
2023-03-29T18:01:25.613Z,9.30
2023-03-29T18:06:27.877Z,9.16
2023-03-29T18:11:30.071Z,9.17
2023-03-29T18:16:32.262Z,9.21
2023-03-29T18:21:34.525Z,9.11
2023-03-29T18:26:36.609Z,8.97
2023-03-29T18:31:38.763Z,8.99
2023-03-29T18:36:40.974Z,8.94
2023-03-29T18:41:43.090Z,8.83
2023-03-29T18:46:45.514Z,8.80
2023-03-29T18:51:48.338Z,8.81
2023-03-29T18:56:50.462Z,8.68
2023-03-29T19:01:52.824Z,8.72
2023-03-29T19:06:56.063Z,8.63
2023-03-29T19:11:58.168Z,8.69
2023-03-29T19:17:00.405Z,8.72
2023-03-29T19:22:02.544Z,8.81
2023-03-29T19:27:04.998Z,8.81
2023-03-29T19:32:07.108Z,8.66
2023-03-29T19:37:09.315Z,8.68
2023-03-29T19:42:11.554Z,8.53
2023-03-29T19:47:13.667Z,8.42
2023-03-29T19:52:15.772Z,8.46
2023-03-29T19:57:17.941Z,8.39
2023-03-29T20:02:20.080Z,8.44
2023-03-29T20:07:22.122Z,8.51
2023-03-29T20:12:24.232Z,8.50
2023-03-29T20:17:26.427Z,8.58
2023-03-29T20:22:31.156Z,8.45
2023-03-29T20:27:34.130Z,8.44
2023-03-29T20:32:36.736Z,8.49
2023-03-29T20:37:38.886Z,8.46
